Terminal Aerodrome Forecast
Issued by NWS

Home | Current Version | Previous Version | Text Only | Print | Product List | Glossary On
Versions: 1 2 3 4 5 6 7 8 9 10 11 12 13 14 15 16 17 18 19 20 21 22
000
FTUS45 KBOU 301740
TAFAPA
TAF
KAPA 301740Z 3018/3118 36007KT P6SM FEW080 SCT120 SCT200
     FM302100 06010KT P6SM VCTS SCT080CB BKN150
      TEMPO 3022/3101 VRB15G25KT BKN070CB
     FM310300 08006KT P6SM SCT110 BKN170
     FM310600 16007KT P6SM FEW120 SCT200
     FM311300 34005KT P6SM VCFG SCT012 BKN025
     FM311600 14008KT P6SM FEW140 FEW200=

USA.gov is the U.S. government's official web portal to all federal, state and local government web resources and services.